Port Jefferson Station, New York
Current Conditions -  °F | °C
As of 4:56 AM on Sunday 23 Nov 2014 (Local Time) from KISP Reporting Station
Overcast Overcast  
Wind Chill:   Ceiling: 11000
Heat Index:   Visibility: 10mi
Dew Point: -4°   Wind: 12mph
Humidity: 47%   Direction: 240°WSW
Pressure: 30.17"   Gusts: NA
Location:  40.93°N, 73.05°W
Report Text: KISP 230956Z AUTO 24010KT 10SM OVC110 07/M04 A3017 RMK AO2 SLP216 T00671039
Loading
Personal Weather Stations






























Interactive Weather Map New forecast layout! Learn more

10-Day Weather Forecast

Advertisements
Track Severe Weather on mobile